sensor_id;sensor_type;location;lat;lon;timestamp;temperature;humidity
35258;DHT22;21385;50.878;8.050;2023-04-15T00:00:42;6.30;99.90
35258;DHT22;21385;50.878;8.050;2023-04-15T00:03:08;6.20;99.90
35258;DHT22;21385;50.878;8.050;2023-04-15T00:05:33;6.10;99.90
35258;DHT22;21385;50.878;8.050;2023-04-15T00:08:00;6.00;99.90
35258;DHT22;21385;50.878;8.050;2023-04-15T00:10:26;5.90;99.90
35258;DHT22;21385;50.878;8.050;2023-04-15T00:12:52;5.80;99.90
35258;DHT22;21385;50.878;8.050;2023-04-15T00:15:18;5.70;99.90
35258;DHT22;21385;50.878;8.050;2023-04-15T00:17:44;5.70;99.90
35258;DHT22;21385;50.878;8.050;2023-04-15T00:20:10;5.50;99.90
35258;DHT22;21385;50.878;8.050;2023-04-15T00:22:36;5.50;99.90
35258;DHT22;21385;50.878;8.050;2023-04-15T00:25:02;5.50;99.90
35258;DHT22;21385;50.878;8.050;2023-04-15T00:27:28;5.50;99.90
35258;DHT22;21385;50.878;8.050;2023-04-15T00:29:54;5.50;99.90
35258;DHT22;21385;50.878;8.050;2023-04-15T00:32:20;5.50;99.90
35258;DHT22;21385;50.878;8.050;2023-04-15T00:34:46;5.40;99.90
35258;DHT22;21385;50.878;8.050;2023-04-15T00:37:12;5.40;99.90
35258;DHT22;21385;50.878;8.050;2023-04-15T00:39:38;5.40;99.90
35258;DHT22;21385;50.878;8.050;2023-04-15T00:42:04;5.40;99.90
35258;DHT22;21385;50.878;8.050;2023-04-15T00:44:30;5.40;99.90
35258;DHT22;21385;50.878;8.050;2023-04-15T00:46:56;5.40;99.90
35258;DHT22;21385;50.878;8.050;2023-04-15T00:49:22;5.50;99.90
35258;DHT22;21385;50.878;8.050;2023-04-15T00:51:48;5.50;99.90
35258;DHT22;21385;50.878;8.050;2023-04-15T00:54:14;5.50;99.90
35258;DHT22;21385;50.878;8.050;2023-04-15T00:56:41;5.50;99.90
35258;DHT22;21385;50.878;8.050;2023-04-15T00:59:07;5.40;99.90
35258;DHT22;21385;50.878;8.050;2023-04-15T01:01:36;5.40;99.90
35258;DHT22;21385;50.878;8.050;2023-04-15T01:04:03;5.30;99.90
35258;DHT22;21385;50.878;8.050;2023-04-15T01:06:30;5.30;99.90
35258;DHT22;21385;50.878;8.050;2023-04-15T01:08:57;5.30;99.90
35258;DHT22;21385;50.878;8.050;2023-04-15T01:11:23;5.20;99.90
35258;DHT22;21385;50.878;8.050;2023-04-15T01:13:54;5.20;99.90
35258;DHT22;21385;50.878;8.050;2023-04-15T01:16:20;5.20;99.90
35258;DHT22;21385;50.878;8.050;2023-04-15T01:18:46;5.10;99.90
35258;DHT22;21385;50.878;8.050;2023-04-15T01:21:11;5.10;99.90
35258;DHT22;21385;50.878;8.050;2023-04-15T01:23:38;5.10;99.90
35258;DHT22;21385;50.878;8.050;2023-04-15T01:26:05;5.10;99.90
35258;DHT22;21385;50.878;8.050;2023-04-15T01:28:32;5.10;99.90
35258;DHT22;21385;50.878;8.050;2023-04-15T01:31:24;5.10;99.90
35258;DHT22;21385;50.878;8.050;2023-04-15T01:33:50;5.00;99.90
35258;DHT22;21385;50.878;8.050;2023-04-15T01:36:16;5.00;99.90
35258;DHT22;21385;50.878;8.050;2023-04-15T01:38:42;4.90;99.90
35258;DHT22;21385;50.878;8.050;2023-04-15T01:41:07;4.90;99.90
35258;DHT22;21385;50.878;8.050;2023-04-15T01:43:34;4.80;99.90
35258;DHT22;21385;50.878;8.050;2023-04-15T01:46:01;4.80;99.90
35258;DHT22;21385;50.878;8.050;2023-04-15T01:48:27;4.70;99.90
35258;DHT22;21385;50.878;8.050;2023-04-15T01:50:54;4.70;99.90
35258;DHT22;21385;50.878;8.050;2023-04-15T01:53:21;4.70;99.90
35258;DHT22;21385;50.878;8.050;2023-04-15T01:55:47;4.70;99.90
35258;DHT22;21385;50.878;8.050;2023-04-15T01:58:13;4.70;99.90
35258;DHT22;21385;50.878;8.050;2023-04-15T02:00:39;4.70;99.90
35258;DHT22;21385;50.878;8.050;2023-04-15T02:03:05;4.70;99.90
35258;DHT22;21385;50.878;8.050;2023-04-15T02:05:31;4.60;99.90
35258;DHT22;21385;50.878;8.050;2023-04-15T02:07:56;4.50;99.90
35258;DHT22;21385;50.878;8.050;2023-04-15T02:10:22;4.50;99.90
35258;DHT22;21385;50.878;8.050;2023-04-15T02:12:48;4.40;99.90
35258;DHT22;21385;50.878;8.050;2023-04-15T02:15:14;4.50;99.90
35258;DHT22;21385;50.878;8.050;2023-04-15T02:17:39;4.50;99.90
35258;DHT22;21385;50.878;8.050;2023-04-15T02:20:08;4.50;99.90
35258;DHT22;21385;50.878;8.050;2023-04-15T02:22:34;4.50;99.90
35258;DHT22;21385;50.878;8.050;2023-04-15T02:24:59;4.40;99.90
35258;DHT22;21385;50.878;8.050;2023-04-15T02:27:25;4.40;99.90
35258;DHT22;21385;50.878;8.050;2023-04-15T02:29:52;4.40;99.90
35258;DHT22;21385;50.878;8.050;2023-04-15T02:32:18;4.40;99.90
35258;DHT22;21385;50.878;8.050;2023-04-15T02:34:45;4.30;99.90
35258;DHT22;21385;50.878;8.050;2023-04-15T02:37:12;4.30;99.90
35258;DHT22;21385;50.878;8.050;2023-04-15T02:39:38;4.30;99.90
35258;DHT22;21385;50.878;8.050;2023-04-15T02:42:04;4.20;99.90
35258;DHT22;21385;50.878;8.050;2023-04-15T02:44:31;4.20;99.90
35258;DHT22;21385;50.878;8.050;2023-04-15T02:46:57;4.20;99.90
35258;DHT22;21385;50.878;8.050;2023-04-15T02:49:24;4.10;99.90
35258;DHT22;21385;50.878;8.050;2023-04-15T02:51:50;4.10;99.90
35258;DHT22;21385;50.878;8.050;2023-04-15T02:54:16;4.10;99.90
35258;DHT22;21385;50.878;8.050;2023-04-15T02:56:42;4.10;99.90
35258;DHT22;21385;50.878;8.050;2023-04-15T02:59:08;4.10;99.90
35258;DHT22;21385;50.878;8.050;2023-04-15T03:01:34;4.00;99.90
35258;DHT22;21385;50.878;8.050;2023-04-15T03:03:59;4.00;99.90
35258;DHT22;21385;50.878;8.050;2023-04-15T03:06:25;4.00;99.90
35258;DHT22;21385;50.878;8.050;2023-04-15T03:08:51;3.90;99.90
35258;DHT22;21385;50.878;8.050;2023-04-15T03:11:19;3.90;99.90
35258;DHT22;21385;50.878;8.050;2023-04-15T03:13:45;3.90;99.90
35258;DHT22;21385;50.878;8.050;2023-04-15T03:16:11;3.80;99.90
35258;DHT22;21385;50.878;8.050;2023-04-15T03:18:37;3.80;99.90
35258;DHT22;21385;50.878;8.050;2023-04-15T03:21:03;3.80;99.90
35258;DHT22;21385;50.878;8.050;2023-04-15T03:23:30;3.90;99.90
35258;DHT22;21385;50.878;8.050;2023-04-15T03:25:56;4.00;99.90
35258;DHT22;21385;50.878;8.050;2023-04-15T03:28:23;4.00;99.90
35258;DHT22;21385;50.878;8.050;2023-04-15T03:30:48;4.00;99.90
35258;DHT22;21385;50.878;8.050;2023-04-15T03:33:14;4.00;99.90
35258;DHT22;21385;50.878;8.050;2023-04-15T03:35:40;4.00;99.90
35258;DHT22;21385;50.878;8.050;2023-04-15T03:38:06;4.00;99.90
35258;DHT22;21385;50.878;8.050;2023-04-15T03:40:32;4.00;99.90
35258;DHT22;21385;50.878;8.050;2023-04-15T03:42:57;4.00;99.90
35258;DHT22;21385;50.878;8.050;2023-04-15T03:45:23;4.10;99.90
35258;DHT22;21385;50.878;8.050;2023-04-15T03:47:49;4.10;99.90
35258;DHT22;21385;50.878;8.050;2023-04-15T03:50:14;4.10;99.90
35258;DHT22;21385;50.878;8.050;2023-04-15T03:52:40;4.10;99.90
35258;DHT22;21385;50.878;8.050;2023-04-15T03:55:06;4.10;99.90
35258;DHT22;21385;50.878;8.050;2023-04-15T03:57:33;4.00;99.90
35258;DHT22;21385;50.878;8.050;2023-04-15T04:00:06;4.10;99.90
35258;DHT22;21385;50.878;8.050;2023-04-15T04:02:32;4.10;99.90
35258;DHT22;21385;50.878;8.050;2023-04-15T04:04:57;4.10;99.90
35258;DHT22;21385;50.878;8.050;2023-04-15T04:07:23;4.10;99.90
35258;DHT22;21385;50.878;8.050;2023-04-15T04:09:50;4.00;99.90
35258;DHT22;21385;50.878;8.050;2023-04-15T04:12:16;4.00;99.90
35258;DHT22;21385;50.878;8.050;2023-04-15T04:14:41;3.90;99.90
35258;DHT22;21385;50.878;8.050;2023-04-15T04:17:07;3.90;99.90
35258;DHT22;21385;50.878;8.050;2023-04-15T04:19:33;3.90;99.90
35258;DHT22;21385;50.878;8.050;2023-04-15T04:21:59;3.90;99.90
35258;DHT22;21385;50.878;8.050;2023-04-15T04:24:25;3.90;99.90
35258;DHT22;21385;50.878;8.050;2023-04-15T04:26:51;3.90;99.90
35258;DHT22;21385;50.878;8.050;2023-04-15T04:29:16;4.00;99.90
35258;DHT22;21385;50.878;8.050;2023-04-15T04:31:42;4.00;99.90
35258;DHT22;21385;50.878;8.050;2023-04-15T04:34:08;4.00;99.90
35258;DHT22;21385;50.878;8.050;2023-04-15T04:36:33;4.00;99.90
35258;DHT22;21385;50.878;8.050;2023-04-15T04:38:59;4.10;99.90
35258;DHT22;21385;50.878;8.050;2023-04-15T04:41:26;4.00;99.90
35258;DHT22;21385;50.878;8.050;2023-04-15T04:43:51;4.10;99.90
35258;DHT22;21385;50.878;8.050;2023-04-15T04:46:17;4.10;99.90
35258;DHT22;21385;50.878;8.050;2023-04-15T04:48:43;4.00;99.90
35258;DHT22;21385;50.878;8.050;2023-04-15T04:51:09;4.10;99.90
35258;DHT22;21385;50.878;8.050;2023-04-15T04:53:35;4.00;99.90
35258;DHT22;21385;50.878;8.050;2023-04-15T04:56:02;4.10;99.90
35258;DHT22;21385;50.878;8.050;2023-04-15T04:58:28;4.10;99.90
35258;DHT22;21385;50.878;8.050;2023-04-15T05:00:53;4.00;99.90
35258;DHT22;21385;50.878;8.050;2023-04-15T05:03:19;4.00;99.90
35258;DHT22;21385;50.878;8.050;2023-04-15T05:05:45;4.00;99.90
35258;DHT22;21385;50.878;8.050;2023-04-15T05:08:10;4.00;99.90
35258;DHT22;21385;50.878;8.050;2023-04-15T05:10:36;4.10;99.90
35258;DHT22;21385;50.878;8.050;2023-04-15T05:13:02;4.00;99.90
35258;DHT22;21385;50.878;8.050;2023-04-15T05:15:27;4.00;99.90
35258;DHT22;21385;50.878;8.050;2023-04-15T05:17:53;4.10;99.90
35258;DHT22;21385;50.878;8.050;2023-04-15T05:20:19;4.10;99.90
35258;DHT22;21385;50.878;8.050;2023-04-15T05:22:45;4.10;99.90
35258;DHT22;21385;50.878;8.050;2023-04-15T05:25:10;4.10;99.90
35258;DHT22;21385;50.878;8.050;2023-04-15T05:27:36;4.10;99.90
35258;DHT22;21385;50.878;8.050;2023-04-15T05:30:02;4.10;99.90
35258;DHT22;21385;50.878;8.050;2023-04-15T05:32:28;4.20;99.90
35258;DHT22;21385;50.878;8.050;2023-04-15T05:34:54;4.20;99.90
35258;DHT22;21385;50.878;8.050;2023-04-15T05:37:20;4.30;99.90
35258;DHT22;21385;50.878;8.050;2023-04-15T05:39:46;4.30;99.90
35258;DHT22;21385;50.878;8.050;2023-04-15T05:42:13;4.20;99.90
35258;DHT22;21385;50.878;8.050;2023-04-15T05:44:40;4.30;99.90
35258;DHT22;21385;50.878;8.050;2023-04-15T05:47:08;4.30;99.90
35258;DHT22;21385;50.878;8.050;2023-04-15T05:49:35;4.40;99.90
35258;DHT22;21385;50.878;8.050;2023-04-15T05:52:01;4.40;99.90
35258;DHT22;21385;50.878;8.050;2023-04-15T05:54:27;4.40;99.90
35258;DHT22;21385;50.878;8.050;2023-04-15T05:56:53;4.40;99.90
35258;DHT22;21385;50.878;8.050;2023-04-15T05:59:18;4.50;99.90
35258;DHT22;21385;50.878;8.050;2023-04-15T06:01:45;4.50;99.90
35258;DHT22;21385;50.878;8.050;2023-04-15T06:04:11;4.50;99.90
35258;DHT22;21385;50.878;8.050;2023-04-15T06:06:37;4.50;99.90
35258;DHT22;21385;50.878;8.050;2023-04-15T06:09:03;4.60;99.90
35258;DHT22;21385;50.878;8.050;2023-04-15T06:11:29;4.50;99.90
35258;DHT22;21385;50.878;8.050;2023-04-15T06:13:55;4.60;99.90
35258;DHT22;21385;50.878;8.050;2023-04-15T06:16:21;4.60;99.90
35258;DHT22;21385;50.878;8.050;2023-04-15T06:18:47;4.60;99.90
35258;DHT22;21385;50.878;8.050;2023-04-15T06:21:13;4.70;99.90
35258;DHT22;21385;50.878;8.050;2023-04-15T06:23:40;4.80;99.90
35258;DHT22;21385;50.878;8.050;2023-04-15T06:26:06;4.80;99.90
35258;DHT22;21385;50.878;8.050;2023-04-15T06:28:31;4.90;99.90
35258;DHT22;21385;50.878;8.050;2023-04-15T06:30:57;4.90;99.90
35258;DHT22;21385;50.878;8.050;2023-04-15T06:33:23;5.00;99.90
35258;DHT22;21385;50.878;8.050;2023-04-15T06:35:49;5.00;99.90
35258;DHT22;21385;50.878;8.050;2023-04-15T06:38:15;5.10;99.90
35258;DHT22;21385;50.878;8.050;2023-04-15T06:40:41;5.30;99.90
35258;DHT22;21385;50.878;8.050;2023-04-15T06:43:07;5.40;99.90
35258;DHT22;21385;50.878;8.050;2023-04-15T06:45:33;5.50;99.90
35258;DHT22;21385;50.878;8.050;2023-04-15T06:47:59;5.50;99.90
35258;DHT22;21385;50.878;8.050;2023-04-15T06:50:25;5.50;99.90
35258;DHT22;21385;50.878;8.050;2023-04-15T06:52:53;5.50;99.90
35258;DHT22;21385;50.878;8.050;2023-04-15T06:55:19;5.50;99.90
35258;DHT22;21385;50.878;8.050;2023-04-15T06:57:45;5.50;99.90
35258;DHT22;21385;50.878;8.050;2023-04-15T07:00:11;5.60;99.90
35258;DHT22;21385;50.878;8.050;2023-04-15T07:02:37;5.70;99.90
35258;DHT22;21385;50.878;8.050;2023-04-15T07:05:03;5.70;99.90
35258;DHT22;21385;50.878;8.050;2023-04-15T07:07:29;5.80;99.90
35258;DHT22;21385;50.878;8.050;2023-04-15T07:09:55;5.80;99.90
35258;DHT22;21385;50.878;8.050;2023-04-15T07:12:20;5.80;99.90
35258;DHT22;21385;50.878;8.050;2023-04-15T07:14:46;5.90;99.90
35258;DHT22;21385;50.878;8.050;2023-04-15T07:17:12;6.00;99.90
35258;DHT22;21385;50.878;8.050;2023-04-15T07:19:37;6.10;99.90
35258;DHT22;21385;50.878;8.050;2023-04-15T07:22:03;6.20;99.90
35258;DHT22;21385;50.878;8.050;2023-04-15T07:24:29;6.30;99.90
35258;DHT22;21385;50.878;8.050;2023-04-15T07:26:55;6.50;99.90
35258;DHT22;21385;50.878;8.050;2023-04-15T07:29:24;6.60;99.90
35258;DHT22;21385;50.878;8.050;2023-04-15T07:31:50;6.70;99.90
35258;DHT22;21385;50.878;8.050;2023-04-15T07:34:15;6.80;99.90
35258;DHT22;21385;50.878;8.050;2023-04-15T07:36:42;7.00;99.90
35258;DHT22;21385;50.878;8.050;2023-04-15T07:39:07;7.00;99.90
35258;DHT22;21385;50.878;8.050;2023-04-15T07:43:59;7.30;99.90
35258;DHT22;21385;50.878;8.050;2023-04-15T07:46:25;7.50;99.90
35258;DHT22;21385;50.878;8.050;2023-04-15T07:48:52;7.70;99.90
35258;DHT22;21385;50.878;8.050;2023-04-15T07:51:19;7.80;99.90
35258;DHT22;21385;50.878;8.050;2023-04-15T07:53:46;8.00;99.90
35258;DHT22;21385;50.878;8.050;2023-04-15T07:56:12;8.20;99.90
35258;DHT22;21385;50.878;8.050;2023-04-15T07:58:38;8.50;99.90
35258;DHT22;21385;50.878;8.050;2023-04-15T08:01:04;8.80;99.90
35258;DHT22;21385;50.878;8.050;2023-04-15T08:03:30;8.90;99.90
35258;DHT22;21385;50.878;8.050;2023-04-15T08:05:56;9.10;99.90
35258;DHT22;21385;50.878;8.050;2023-04-15T08:08:22;9.20;99.90
35258;DHT22;21385;50.878;8.050;2023-04-15T08:10:48;9.30;99.90
35258;DHT22;21385;50.878;8.050;2023-04-15T08:13:14;9.40;99.90
35258;DHT22;21385;50.878;8.050;2023-04-15T08:15:40;9.50;99.90
35258;DHT22;21385;50.878;8.050;2023-04-15T08:18:06;9.60;99.90
35258;DHT22;21385;50.878;8.050;2023-04-15T08:20:32;9.80;99.90
35258;DHT22;21385;50.878;8.050;2023-04-15T08:22:58;9.90;99.90
35258;DHT22;21385;50.878;8.050;2023-04-15T08:25:24;10.00;99.90
35258;DHT22;21385;50.878;8.050;2023-04-15T08:27:50;10.10;99.90
35258;DHT22;21385;50.878;8.050;2023-04-15T08:30:16;10.10;99.90
35258;DHT22;21385;50.878;8.050;2023-04-15T08:32:44;10.20;99.90
35258;DHT22;21385;50.878;8.050;2023-04-15T08:35:11;10.30;99.90
35258;DHT22;21385;50.878;8.050;2023-04-15T08:37:37;10.40;99.90
35258;DHT22;21385;50.878;8.050;2023-04-15T08:40:03;10.50;99.90
35258;DHT22;21385;50.878;8.050;2023-04-15T08:42:31;10.50;99.90
35258;DHT22;21385;50.878;8.050;2023-04-15T08:45:03;10.50;99.90
35258;DHT22;21385;50.878;8.050;2023-04-15T08:47:29;10.60;99.90
35258;DHT22;21385;50.878;8.050;2023-04-15T08:49:59;10.60;99.90
35258;DHT22;21385;50.878;8.050;2023-04-15T08:52:30;10.80;99.90
35258;DHT22;21385;50.878;8.050;2023-04-15T08:54:56;10.80;99.90
35258;DHT22;21385;50.878;8.050;2023-04-15T08:57:26;10.80;99.90
35258;DHT22;21385;50.878;8.050;2023-04-15T08:59:55;10.80;99.90
35258;DHT22;21385;50.878;8.050;2023-04-15T09:02:23;10.80;99.90
35258;DHT22;21385;50.878;8.050;2023-04-15T09:04:48;10.80;99.90
35258;DHT22;21385;50.878;8.050;2023-04-15T09:07:14;10.80;99.90
35258;DHT22;21385;50.878;8.050;2023-04-15T09:09:40;10.80;99.90
35258;DHT22;21385;50.878;8.050;2023-04-15T09:12:07;10.80;99.90
35258;DHT22;21385;50.878;8.050;2023-04-15T09:14:33;10.90;99.90
35258;DHT22;21385;50.878;8.050;2023-04-15T09:17:01;10.90;99.90
35258;DHT22;21385;50.878;8.050;2023-04-15T09:19:27;10.90;99.90
35258;DHT22;21385;50.878;8.050;2023-04-15T09:21:55;10.90;99.90
35258;DHT22;21385;50.878;8.050;2023-04-15T09:24:24;10.90;99.90
35258;DHT22;21385;50.878;8.050;2023-04-15T09:26:53;10.90;99.90
35258;DHT22;21385;50.878;8.050;2023-04-15T09:29:19;10.80;99.90
35258;DHT22;21385;50.878;8.050;2023-04-15T09:31:45;10.90;99.90
35258;DHT22;21385;50.878;8.050;2023-04-15T09:34:10;10.90;99.90
35258;DHT22;21385;50.878;8.050;2023-04-15T09:36:55;10.90;99.90
35258;DHT22;21385;50.878;8.050;2023-04-15T09:39:21;10.90;99.90
35258;DHT22;21385;50.878;8.050;2023-04-15T09:42:02;10.90;99.90
35258;DHT22;21385;50.878;8.050;2023-04-15T09:44:28;11.00;99.90
35258;DHT22;21385;50.878;8.050;2023-04-15T09:46:54;11.10;99.90
35258;DHT22;21385;50.878;8.050;2023-04-15T09:49:20;11.30;99.90
35258;DHT22;21385;50.878;8.050;2023-04-15T09:51:45;11.40;99.90
35258;DHT22;21385;50.878;8.050;2023-04-15T09:54:11;11.40;99.90
35258;DHT22;21385;50.878;8.050;2023-04-15T09:56:38;11.40;99.90
35258;DHT22;21385;50.878;8.050;2023-04-15T09:59:09;11.40;99.90
35258;DHT22;21385;50.878;8.050;2023-04-15T10:01:35;11.40;99.90
35258;DHT22;21385;50.878;8.050;2023-04-15T10:04:04;11.50;99.90
35258;DHT22;21385;50.878;8.050;2023-04-15T10:06:31;11.50;99.90
35258;DHT22;21385;50.878;8.050;2023-04-15T10:09:00;11.60;99.90
35258;DHT22;21385;50.878;8.050;2023-04-15T10:11:28;11.70;99.90
35258;DHT22;21385;50.878;8.050;2023-04-15T10:13:55;11.70;99.90
35258;DHT22;21385;50.878;8.050;2023-04-15T10:16:25;11.70;99.90
35258;DHT22;21385;50.878;8.050;2023-04-15T10:18:55;11.70;99.90
35258;DHT22;21385;50.878;8.050;2023-04-15T10:21:21;11.50;99.90
35258;DHT22;21385;50.878;8.050;2023-04-15T10:23:48;11.50;99.90
35258;DHT22;21385;50.878;8.050;2023-04-15T10:26:15;11.50;99.90
35258;DHT22;21385;50.878;8.050;2023-04-15T10:28:45;11.50;99.90
35258;DHT22;21385;50.878;8.050;2023-04-15T10:31:14;11.70;99.90
35258;DHT22;21385;50.878;8.050;2023-04-15T10:33:40;11.70;99.90
35258;DHT22;21385;50.878;8.050;2023-04-15T10:36:07;11.90;99.90
35258;DHT22;21385;50.878;8.050;2023-04-15T10:38:40;12.10;99.90
35258;DHT22;21385;50.878;8.050;2023-04-15T10:41:24;12.20;99.90
35258;DHT22;21385;50.878;8.050;2023-04-15T10:44:09;12.20;99.90
35258;DHT22;21385;50.878;8.050;2023-04-15T10:46:41;12.10;99.90
35258;DHT22;21385;50.878;8.050;2023-04-15T11:00:51;10.90;99.90
35258;DHT22;21385;50.878;8.050;2023-04-15T11:03:36;10.70;99.90
35258;DHT22;21385;50.878;8.050;2023-04-15T11:06:04;10.70;99.90
35258;DHT22;21385;50.878;8.050;2023-04-15T11:11:18;10.80;99.90
35258;DHT22;21385;50.878;8.050;2023-04-15T11:13:48;10.90;99.90
35258;DHT22;21385;50.878;8.050;2023-04-15T11:18:40;10.90;99.90
35258;DHT22;21385;50.878;8.050;2023-04-15T11:21:07;10.90;99.90
35258;DHT22;21385;50.878;8.050;2023-04-15T11:23:35;10.80;99.90
35258;DHT22;21385;50.878;8.050;2023-04-15T11:26:04;10.80;99.90
35258;DHT22;21385;50.878;8.050;2023-04-15T11:28:35;10.80;99.90
35258;DHT22;21385;50.878;8.050;2023-04-15T11:31:14;10.80;99.90
35258;DHT22;21385;50.878;8.050;2023-04-15T11:33:53;10.90;99.90
35258;DHT22;21385;50.878;8.050;2023-04-15T11:36:20;10.90;99.90
35258;DHT22;21385;50.878;8.050;2023-04-15T11:38:46;10.80;99.90
35258;DHT22;21385;50.878;8.050;2023-04-15T11:41:12;10.80;99.90
35258;DHT22;21385;50.878;8.050;2023-04-15T11:43:38;10.70;99.90
35258;DHT22;21385;50.878;8.050;2023-04-15T11:46:04;10.60;99.90
35258;DHT22;21385;50.878;8.050;2023-04-15T11:48:34;10.50;99.90
35258;DHT22;21385;50.878;8.050;2023-04-15T11:51:05;10.60;99.90
35258;DHT22;21385;50.878;8.050;2023-04-15T11:53:46;10.60;99.90
35258;DHT22;21385;50.878;8.050;2023-04-15T11:56:20;10.60;99.90
35258;DHT22;21385;50.878;8.050;2023-04-15T11:58:47;10.60;99.90
35258;DHT22;21385;50.878;8.050;2023-04-15T12:01:14;10.60;99.90
35258;DHT22;21385;50.878;8.050;2023-04-15T12:03:44;10.60;99.90
35258;DHT22;21385;50.878;8.050;2023-04-15T12:06:18;10.50;99.90
35258;DHT22;21385;50.878;8.050;2023-04-15T12:09:16;10.50;99.90
35258;DHT22;21385;50.878;8.050;2023-04-15T12:11:56;10.50;99.90
35258;DHT22;21385;50.878;8.050;2023-04-15T12:14:29;10.40;99.90
35258;DHT22;21385;50.878;8.050;2023-04-15T12:17:00;10.30;99.90
35258;DHT22;21385;50.878;8.050;2023-04-15T12:21:59;10.00;99.90
35258;DHT22;21385;50.878;8.050;2023-04-15T12:24:25;10.00;99.90
35258;DHT22;21385;50.878;8.050;2023-04-15T12:26:55;9.90;99.90
35258;DHT22;21385;50.878;8.050;2023-04-15T12:29:25;9.90;99.90
35258;DHT22;21385;50.878;8.050;2023-04-15T12:31:56;9.90;99.90
35258;DHT22;21385;50.878;8.050;2023-04-15T12:34:33;9.90;99.90
35258;DHT22;21385;50.878;8.050;2023-04-15T12:37:01;9.90;99.90
35258;DHT22;21385;50.878;8.050;2023-04-15T12:39:28;9.90;99.90
35258;DHT22;21385;50.878;8.050;2023-04-15T12:41:55;9.90;99.90
35258;DHT22;21385;50.878;8.050;2023-04-15T12:44:22;9.80;99.90
35258;DHT22;21385;50.878;8.050;2023-04-15T12:46:49;9.80;99.90
35258;DHT22;21385;50.878;8.050;2023-04-15T12:49:15;9.80;99.90
35258;DHT22;21385;50.878;8.050;2023-04-15T12:51:43;9.80;99.90
35258;DHT22;21385;50.878;8.050;2023-04-15T12:54:10;9.80;99.90
35258;DHT22;21385;50.878;8.050;2023-04-15T12:56:35;9.70;99.90
35258;DHT22;21385;50.878;8.050;2023-04-15T12:59:01;9.60;99.90
35258;DHT22;21385;50.878;8.050;2023-04-15T13:01:27;9.60;99.90
35258;DHT22;21385;50.878;8.050;2023-04-15T13:03:53;9.60;99.90
35258;DHT22;21385;50.878;8.050;2023-04-15T13:06:19;9.50;99.90
35258;DHT22;21385;50.878;8.050;2023-04-15T13:08:44;9.60;99.90
35258;DHT22;21385;50.878;8.050;2023-04-15T13:11:10;9.50;99.90
35258;DHT22;21385;50.878;8.050;2023-04-15T13:13:36;9.50;99.90
35258;DHT22;21385;50.878;8.050;2023-04-15T13:16:01;9.70;99.90
35258;DHT22;21385;50.878;8.050;2023-04-15T13:18:27;9.70;99.90
35258;DHT22;21385;50.878;8.050;2023-04-15T13:20:55;9.80;99.90
35258;DHT22;21385;50.878;8.050;2023-04-15T13:23:21;9.90;99.90
35258;DHT22;21385;50.878;8.050;2023-04-15T13:25:46;9.90;99.90
35258;DHT22;21385;50.878;8.050;2023-04-15T13:28:12;9.90;99.90
35258;DHT22;21385;50.878;8.050;2023-04-15T13:30:38;10.00;99.90
35258;DHT22;21385;50.878;8.050;2023-04-15T13:33:04;10.00;99.90
35258;DHT22;21385;50.878;8.050;2023-04-15T13:35:31;9.90;99.90
35258;DHT22;21385;50.878;8.050;2023-04-15T13:37:57;10.00;99.90
35258;DHT22;21385;50.878;8.050;2023-04-15T13:40:26;9.90;99.90
35258;DHT22;21385;50.878;8.050;2023-04-15T13:42:55;9.90;99.90
35258;DHT22;21385;50.878;8.050;2023-04-15T13:45:22;9.70;99.90
35258;DHT22;21385;50.878;8.050;2023-04-15T13:47:47;9.60;99.90
35258;DHT22;21385;50.878;8.050;2023-04-15T13:50:13;9.60;99.90
35258;DHT22;21385;50.878;8.050;2023-04-15T13:52:39;9.70;99.90
35258;DHT22;21385;50.878;8.050;2023-04-15T13:55:05;9.70;99.90
35258;DHT22;21385;50.878;8.050;2023-04-15T13:57:31;9.70;99.90
35258;DHT22;21385;50.878;8.050;2023-04-15T13:59:57;9.70;99.90
35258;DHT22;21385;50.878;8.050;2023-04-15T14:02:23;9.80;99.90
35258;DHT22;21385;50.878;8.050;2023-04-15T14:04:49;9.80;99.90
35258;DHT22;21385;50.878;8.050;2023-04-15T14:07:14;9.90;99.90
35258;DHT22;21385;50.878;8.050;2023-04-15T14:09:40;9.80;99.90
35258;DHT22;21385;50.878;8.050;2023-04-15T14:12:06;9.80;99.90
35258;DHT22;21385;50.878;8.050;2023-04-15T14:14:32;9.80;99.90
35258;DHT22;21385;50.878;8.050;2023-04-15T14:16:58;9.80;99.90
35258;DHT22;21385;50.878;8.050;2023-04-15T14:19:23;9.70;99.90
35258;DHT22;21385;50.878;8.050;2023-04-15T14:21:49;9.70;99.90
35258;DHT22;21385;50.878;8.050;2023-04-15T14:24:15;9.70;99.90
35258;DHT22;21385;50.878;8.050;2023-04-15T14:26:42;9.70;99.90
35258;DHT22;21385;50.878;8.050;2023-04-15T14:29:08;9.70;99.90
35258;DHT22;21385;50.878;8.050;2023-04-15T14:31:35;9.70;99.90
35258;DHT22;21385;50.878;8.050;2023-04-15T14:34:01;9.70;99.90
35258;DHT22;21385;50.878;8.050;2023-04-15T14:36:26;9.70;99.90
35258;DHT22;21385;50.878;8.050;2023-04-15T14:38:52;9.80;99.90
35258;DHT22;21385;50.878;8.050;2023-04-15T14:41:18;9.70;99.90
35258;DHT22;21385;50.878;8.050;2023-04-15T14:43:44;9.70;99.90
35258;DHT22;21385;50.878;8.050;2023-04-15T14:46:10;9.70;99.90
35258;DHT22;21385;50.878;8.050;2023-04-15T14:48:36;9.60;99.90
35258;DHT22;21385;50.878;8.050;2023-04-15T14:51:01;9.60;99.90
35258;DHT22;21385;50.878;8.050;2023-04-15T14:53:27;9.60;99.90
35258;DHT22;21385;50.878;8.050;2023-04-15T14:55:53;9.50;99.90
35258;DHT22;21385;50.878;8.050;2023-04-15T14:58:19;9.50;99.90
35258;DHT22;21385;50.878;8.050;2023-04-15T15:00:44;9.50;99.90
35258;DHT22;21385;50.878;8.050;2023-04-15T15:03:11;9.50;99.90
35258;DHT22;21385;50.878;8.050;2023-04-15T15:05:41;9.50;99.90
35258;DHT22;21385;50.878;8.050;2023-04-15T15:08:08;9.60;99.90
35258;DHT22;21385;50.878;8.050;2023-04-15T15:10:34;9.70;99.90
35258;DHT22;21385;50.878;8.050;2023-04-15T15:13:04;9.70;99.90
35258;DHT22;21385;50.878;8.050;2023-04-15T15:15:32;9.70;99.90
35258;DHT22;21385;50.878;8.050;2023-04-15T15:17:59;9.90;99.90
35258;DHT22;21385;50.878;8.050;2023-04-15T15:20:26;11.10;99.90
35258;DHT22;21385;50.878;8.050;2023-04-15T15:22:54;11.20;99.90
35258;DHT22;21385;50.878;8.050;2023-04-15T15:25:20;11.00;99.90
35258;DHT22;21385;50.878;8.050;2023-04-15T15:27:46;10.80;99.90
35258;DHT22;21385;50.878;8.050;2023-04-15T15:30:12;10.70;99.90
35258;DHT22;21385;50.878;8.050;2023-04-15T15:32:41;10.40;99.90
35258;DHT22;21385;50.878;8.050;2023-04-15T15:35:08;10.30;99.90
35258;DHT22;21385;50.878;8.050;2023-04-15T15:37:35;10.20;99.90
35258;DHT22;21385;50.878;8.050;2023-04-15T15:40:05;10.10;99.90
35258;DHT22;21385;50.878;8.050;2023-04-15T15:42:33;10.10;99.90
35258;DHT22;21385;50.878;8.050;2023-04-15T15:44:58;10.00;99.90
35258;DHT22;21385;50.878;8.050;2023-04-15T15:47:24;9.90;99.90
35258;DHT22;21385;50.878;8.050;2023-04-15T15:49:55;9.80;99.90
35258;DHT22;21385;50.878;8.050;2023-04-15T15:52:22;9.70;99.90
35258;DHT22;21385;50.878;8.050;2023-04-15T15:54:48;9.70;99.90
35258;DHT22;21385;50.878;8.050;2023-04-15T15:57:14;9.70;99.90
35258;DHT22;21385;50.878;8.050;2023-04-15T15:59:40;9.60;99.90
35258;DHT22;21385;50.878;8.050;2023-04-15T16:02:09;9.60;99.90